createdAt,value
2023-08-20T00:01:13.800Z,6.93
2023-08-20T00:03:42.848Z,6.53
2023-08-20T00:06:10.005Z,7.00
2023-08-20T00:08:37.349Z,8.10
2023-08-20T00:11:06.563Z,7.97
2023-08-20T00:13:33.727Z,9.97
2023-08-20T00:16:01.157Z,9.63
2023-08-20T00:18:28.467Z,11.50
2023-08-20T00:20:56.295Z,8.60
2023-08-20T00:23:23.690Z,8.33
2023-08-20T00:25:50.967Z,7.77
2023-08-20T00:28:17.800Z,7.83
2023-08-20T00:30:44.729Z,7.10
2023-08-20T00:33:11.765Z,7.27
2023-08-20T00:35:38.827Z,6.33
2023-08-20T00:38:06.720Z,6.80
2023-08-20T00:40:33.672Z,7.03
2023-08-20T00:43:00.790Z,7.00
2023-08-20T00:45:28.649Z,7.10
2023-08-20T00:47:55.707Z,7.23
2023-08-20T00:50:23.578Z,6.83
2023-08-20T00:52:50.794Z,6.83
2023-08-20T00:55:17.812Z,6.33
2023-08-20T00:57:45.678Z,7.03
2023-08-20T01:00:13.024Z,6.10
2023-08-20T01:02:41.310Z,6.03
2023-08-20T01:05:10.869Z,6.50
2023-08-20T01:07:38.744Z,7.57
2023-08-20T01:10:20.950Z,6.50
2023-08-20T01:12:48.498Z,6.90
2023-08-20T01:15:15.496Z,6.67
2023-08-20T01:17:43.059Z,6.73
2023-08-20T01:20:12.601Z,7.70
2023-08-20T01:22:54.813Z,7.23
2023-08-20T01:25:44.152Z,6.53
2023-08-20T01:28:29.172Z,6.57
2023-08-20T01:30:58.557Z,6.90
2023-08-20T01:33:26.210Z,6.20
2023-08-20T01:35:53.886Z,6.00
2023-08-20T01:38:21.518Z,5.83
2023-08-20T01:40:48.889Z,6.20
2023-08-20T01:43:16.606Z,7.17
2023-08-20T01:45:43.609Z,7.20
2023-08-20T01:48:10.529Z,7.17
2023-08-20T01:50:37.710Z,6.83
2023-08-20T01:53:04.705Z,7.43
2023-08-20T01:55:32.748Z,7.00
2023-08-20T01:58:00.423Z,6.70
2023-08-20T02:00:28.888Z,6.70
2023-08-20T02:02:55.953Z,6.00
2023-08-20T02:05:22.851Z,7.53
2023-08-20T02:07:49.943Z,7.70
2023-08-20T02:10:16.925Z,7.97
2023-08-20T02:12:44.395Z,8.23
2023-08-20T02:15:12.525Z,7.17
2023-08-20T02:17:39.783Z,7.30
2023-08-20T02:20:09.004Z,7.00
2023-08-20T02:22:35.894Z,7.60
2023-08-20T02:25:02.909Z,6.30
2023-08-20T02:27:29.880Z,6.90
2023-08-20T02:29:56.671Z,7.63
2023-08-20T02:32:23.627Z,8.50
2023-08-20T02:34:52.066Z,7.73
2023-08-20T02:37:18.960Z,6.93
2023-08-20T02:39:45.857Z,8.20
2023-08-20T02:42:12.966Z,8.20
2023-08-20T02:44:39.814Z,8.80
2023-08-20T02:47:06.852Z,9.53
2023-08-20T02:49:33.729Z,9.67
2023-08-20T02:52:00.593Z,10.53
2023-08-20T02:54:27.661Z,9.90
2023-08-20T02:56:54.437Z,8.93
2023-08-20T02:59:21.530Z,9.57
2023-08-20T03:01:48.614Z,8.70
2023-08-20T03:04:15.598Z,9.03
2023-08-20T03:06:42.486Z,8.30
2023-08-20T03:09:09.336Z,8.77
2023-08-20T03:11:36.204Z,9.13
2023-08-20T03:14:03.289Z,8.80
2023-08-20T03:16:30.190Z,8.20
2023-08-20T03:18:57.117Z,8.17
2023-08-20T03:21:23.950Z,8.63
2023-08-20T03:23:51.187Z,8.40
2023-08-20T03:26:18.067Z,8.83
2023-08-20T03:28:44.958Z,8.87
2023-08-20T03:31:11.912Z,8.67
2023-08-20T03:33:38.805Z,8.80
2023-08-20T03:36:05.789Z,8.57
2023-08-20T03:38:32.633Z,9.10
2023-08-20T03:40:59.499Z,8.40
2023-08-20T03:43:26.369Z,8.10
2023-08-20T03:45:54.414Z,8.10
2023-08-20T03:48:22.215Z,7.97
2023-08-20T03:50:49.110Z,7.00
2023-08-20T03:53:16.367Z,8.27
2023-08-20T03:55:43.353Z,7.83
2023-08-20T03:58:10.149Z,8.20
2023-08-20T04:00:37.367Z,8.93
2023-08-20T04:03:04.560Z,8.90
2023-08-20T04:05:37.629Z,8.50
2023-08-20T04:08:05.665Z,8.77
2023-08-20T04:10:32.841Z,8.13
2023-08-20T04:13:00.322Z,7.90
2023-08-20T04:15:27.208Z,8.50
2023-08-20T04:17:54.133Z,9.20
2023-08-20T04:20:21.064Z,8.10
2023-08-20T04:22:47.872Z,8.50
2023-08-20T04:25:14.736Z,8.07
2023-08-20T04:27:41.530Z,7.97
2023-08-20T04:30:09.002Z,9.10
2023-08-20T04:32:35.938Z,8.47
2023-08-20T04:35:02.903Z,9.20
2023-08-20T04:37:29.725Z,9.13
2023-08-20T04:39:56.666Z,8.90
2023-08-20T04:42:23.534Z,9.50
2023-08-20T04:44:50.417Z,9.90
2023-08-20T04:47:18.031Z,10.43
2023-08-20T04:49:44.907Z,11.10
2023-08-20T04:52:11.738Z,10.50
2023-08-20T04:54:38.614Z,10.67
2023-08-20T04:57:05.543Z,10.17
2023-08-20T04:59:32.390Z,9.83
2023-08-20T05:01:59.309Z,9.77
2023-08-20T05:04:26.133Z,10.40
2023-08-20T05:06:52.988Z,9.83
2023-08-20T05:09:19.821Z,10.13
2023-08-20T05:11:46.710Z,10.23
2023-08-20T05:14:13.595Z,11.10
2023-08-20T05:16:40.441Z,9.73
2023-08-20T05:19:07.292Z,9.90
2023-08-20T05:21:34.185Z,9.40
2023-08-20T05:24:01.168Z,10.47
2023-08-20T05:26:28.011Z,9.83
2023-08-20T05:28:54.891Z,9.80
2023-08-20T05:31:22.487Z,9.40
2023-08-20T05:33:49.376Z,9.20
2023-08-20T05:36:16.606Z,9.70
2023-08-20T05:38:44.042Z,9.47
2023-08-20T05:41:10.919Z,9.80
2023-08-20T05:43:37.884Z,9.43
2023-08-20T05:46:04.804Z,9.87
2023-08-20T05:48:31.673Z,10.07
2023-08-20T05:50:58.510Z,9.97
2023-08-20T05:53:27.324Z,9.87
2023-08-20T05:55:54.146Z,11.83
2023-08-20T05:58:21.029Z,12.67
2023-08-20T06:00:48.085Z,10.97
2023-08-20T06:03:15.048Z,10.43
2023-08-20T06:05:41.961Z,10.37
2023-08-20T06:08:08.988Z,10.53
2023-08-20T06:10:35.859Z,10.87
2023-08-20T06:13:02.760Z,10.87
2023-08-20T06:15:29.601Z,10.30
2023-08-20T06:17:56.446Z,11.03
2023-08-20T06:20:23.348Z,11.67
2023-08-20T06:22:50.218Z,10.37
2023-08-20T06:25:17.114Z,10.30
2023-08-20T06:27:44.103Z,10.43
2023-08-20T06:30:11.594Z,9.83
2023-08-20T06:32:38.452Z,9.90
2023-08-20T06:35:05.782Z,10.37
2023-08-20T06:37:33.087Z,10.90
2023-08-20T06:40:00.191Z,10.40
2023-08-20T06:42:27.044Z,10.70
2023-08-20T06:44:53.999Z,11.70
2023-08-20T06:47:21.104Z,10.50
2023-08-20T06:49:47.935Z,10.50
2023-08-20T06:52:14.847Z,10.60
2023-08-20T06:54:41.822Z,10.17
2023-08-20T06:57:09.646Z,9.17
2023-08-20T06:59:36.566Z,8.53
2023-08-20T07:02:04.621Z,8.33
2023-08-20T07:04:31.471Z,8.80
2023-08-20T07:06:59.489Z,8.40
2023-08-20T07:09:26.272Z,7.73
2023-08-20T07:11:53.175Z,8.80
2023-08-20T07:14:19.945Z,9.77
2023-08-20T07:16:46.779Z,8.63
2023-08-20T07:19:13.628Z,8.10
2023-08-20T07:21:40.522Z,8.60
2023-08-20T07:24:07.808Z,8.17
2023-08-20T07:26:34.618Z,8.10
2023-08-20T07:29:01.797Z,8.30
2023-08-20T07:31:30.727Z,8.27
2023-08-20T07:34:04.509Z,8.80
2023-08-20T07:36:32.112Z,8.00
2023-08-20T07:38:58.978Z,8.63
2023-08-20T07:41:25.860Z,7.60
2023-08-20T07:43:52.802Z,8.40
2023-08-20T07:46:20.053Z,7.70
2023-08-20T07:48:46.990Z,8.23
2023-08-20T07:51:13.932Z,7.50
2023-08-20T07:53:41.148Z,8.10
2023-08-20T07:56:07.943Z,7.90
2023-08-20T07:58:34.850Z,7.70
2023-08-20T08:01:01.938Z,8.53
2023-08-20T08:03:29.039Z,8.43
2023-08-20T08:05:56.504Z,7.10
2023-08-20T08:08:23.905Z,8.30
2023-08-20T08:10:50.757Z,7.60
2023-08-20T08:13:22.669Z,7.80
2023-08-20T08:15:50.741Z,7.40
2023-08-20T08:18:17.734Z,7.07
2023-08-20T08:20:44.779Z,7.95
2023-08-20T08:23:11.918Z,7.18
2023-08-20T08:25:38.861Z,7.50
2023-08-20T08:28:06.768Z,7.78
2023-08-20T08:30:33.671Z,7.60
2023-08-20T08:33:00.822Z,7.60
2023-08-20T08:35:27.846Z,7.32
2023-08-20T08:37:54.726Z,7.40
2023-08-20T08:40:22.594Z,7.72
2023-08-20T08:42:51.897Z,7.00
2023-08-20T08:45:21.699Z,7.55
2023-08-20T08:47:50.450Z,5.95
2023-08-20T08:50:18.099Z,6.57
2023-08-20T08:52:48.478Z,7.03
2023-08-20T08:55:15.346Z,7.10
2023-08-20T08:57:42.198Z,6.90
2023-08-20T09:00:09.710Z,7.00
2023-08-20T09:02:36.587Z,6.30
2023-08-20T09:05:03.567Z,6.40
2023-08-20T09:07:31.725Z,6.65
2023-08-20T09:10:01.786Z,6.30
2023-08-20T09:12:28.940Z,6.53
2023-08-20T09:14:58.851Z,6.50
2023-08-20T09:17:29.202Z,6.85
2023-08-20T09:19:58.514Z,6.60
2023-08-20T09:22:25.906Z,7.25
2023-08-20T09:24:56.274Z,7.18
2023-08-20T09:27:23.806Z,6.70
2023-08-20T09:29:51.922Z,7.35
2023-08-20T09:32:24.204Z,6.85
2023-08-20T09:34:52.419Z,6.65
2023-08-20T09:37:22.489Z,6.00
2023-08-20T09:39:49.952Z,6.93
2023-08-20T09:42:17.599Z,7.18
2023-08-20T09:44:47.930Z,5.90
2023-08-20T09:47:17.812Z,6.80
2023-08-20T09:49:49.266Z,6.28
2023-08-20T09:52:26.075Z,6.63
2023-08-20T09:55:09.662Z,6.60
2023-08-20T09:57:46.569Z,6.53
2023-08-20T10:00:15.380Z,6.75
2023-08-20T10:02:43.756Z,6.25
2023-08-20T10:05:12.673Z,6.93
2023-08-20T10:07:40.155Z,6.60
2023-08-20T10:10:09.296Z,6.03
2023-08-20T10:12:37.860Z,5.82
2023-08-20T10:15:05.495Z,7.35
2023-08-20T10:17:35.088Z,6.20
2023-08-20T10:20:05.995Z,6.07
2023-08-20T10:22:39.802Z,5.57
2023-08-20T10:25:08.439Z,6.38
2023-08-20T10:27:37.718Z,6.72
2023-08-20T10:30:18.440Z,6.00
2023-08-20T10:32:48.227Z,5.93
2023-08-20T10:35:19.757Z,5.30
2023-08-20T10:38:05.902Z,5.40
2023-08-20T10:40:49.179Z,5.63
2023-08-20T10:43:31.474Z,5.65
2023-08-20T10:46:16.113Z,5.45
2023-08-20T10:48:44.356Z,5.40
2023-08-20T10:51:16.619Z,5.72
2023-08-20T10:53:49.037Z,6.28
2023-08-20T10:56:17.560Z,5.60
2023-08-20T10:58:47.541Z,5.65
2023-08-20T11:01:16.789Z,5.78
2023-08-20T11:03:46.049Z,5.55
2023-08-20T11:06:13.668Z,5.60
2023-08-20T11:08:41.721Z,5.07
2023-08-20T11:11:09.357Z,6.38
2023-08-20T11:13:37.160Z,6.28
2023-08-20T11:16:05.181Z,6.03
2023-08-20T11:18:35.381Z,6.20
2023-08-20T11:21:02.625Z,5.30
2023-08-20T11:23:30.790Z,5.40
2023-08-20T11:25:58.511Z,5.97
2023-08-20T11:28:27.249Z,5.75
2023-08-20T11:30:54.943Z,5.93
2023-08-20T11:33:22.987Z,5.80
2023-08-20T11:35:50.504Z,5.85
2023-08-20T11:38:17.506Z,5.70
2023-08-20T11:40:44.523Z,5.85
2023-08-20T11:43:12.960Z,5.60
2023-08-20T11:45:48.730Z,5.85
2023-08-20T11:48:17.016Z,5.60
2023-08-20T11:50:44.419Z,6.05
2023-08-20T11:53:12.153Z,5.30
2023-08-20T11:55:41.334Z,5.38
2023-08-20T11:58:12.835Z,5.93
2023-08-20T12:00:39.742Z,5.93
2023-08-20T12:03:06.919Z,6.10
2023-08-20T12:05:33.825Z,5.88
2023-08-20T12:08:02.747Z,6.60
2023-08-20T12:10:31.376Z,5.68
2023-08-20T12:12:59.207Z,6.35
2023-08-20T12:15:26.736Z,5.32
2023-08-20T12:18:09.929Z,5.05
2023-08-20T12:20:38.325Z,4.70
2023-08-20T12:23:08.246Z,5.80
2023-08-20T12:25:37.247Z,5.63
2023-08-20T12:28:06.643Z,4.95
2023-08-20T12:30:38.589Z,5.70
2023-08-20T12:33:07.245Z,5.20
2023-08-20T12:35:34.689Z,4.70
2023-08-20T12:38:01.800Z,5.47
2023-08-20T12:40:29.719Z,5.32
2023-08-20T12:42:56.626Z,5.40
2023-08-20T12:45:23.578Z,5.43
2023-08-20T12:47:50.632Z,5.38
2023-08-20T12:50:17.680Z,5.57
2023-08-20T12:52:44.563Z,5.35
2023-08-20T12:55:11.879Z,6.25
2023-08-20T12:57:54.941Z,5.40
2023-08-20T13:00:22.847Z,5.00
2023-08-20T13:02:50.213Z,6.03
2023-08-20T13:05:17.469Z,5.35
2023-08-20T13:07:44.651Z,4.97
2023-08-20T13:10:12.189Z,5.78
2023-08-20T13:12:41.714Z,5.75
2023-08-20T13:15:11.724Z,5.22
2023-08-20T13:17:39.461Z,5.85
2023-08-20T13:20:06.870Z,5.43
2023-08-20T13:22:33.662Z,5.97
2023-08-20T13:25:00.502Z,5.93
2023-08-20T13:27:27.399Z,5.47
2023-08-20T13:29:54.278Z,6.20
2023-08-20T13:32:21.168Z,6.72
2023-08-20T13:34:48.100Z,5.28
2023-08-20T13:37:14.967Z,5.15
2023-08-20T13:39:41.853Z,5.40
2023-08-20T13:42:08.731Z,5.07
2023-08-20T13:44:35.492Z,5.07
2023-08-20T13:47:02.388Z,4.53
2023-08-20T13:49:29.298Z,5.28
2023-08-20T13:51:56.206Z,4.95
2023-08-20T13:54:23.172Z,5.38
2023-08-20T13:56:49.996Z,6.00
2023-08-20T13:59:17.034Z,5.00
2023-08-20T14:01:44.031Z,4.60
2023-08-20T14:04:11.007Z,5.35
2023-08-20T14:06:37.990Z,4.72
2023-08-20T14:09:05.861Z,6.18
2023-08-20T14:11:32.972Z,5.90
2023-08-20T14:13:59.904Z,5.43
2023-08-20T14:16:27.015Z,4.85
2023-08-20T14:18:53.858Z,5.53
2023-08-20T14:21:20.703Z,5.47
2023-08-20T14:23:47.528Z,4.80
2023-08-20T14:26:14.480Z,5.00
2023-08-20T14:28:41.292Z,5.63
2023-08-20T14:31:08.240Z,5.60
2023-08-20T14:33:35.515Z,5.38
2023-08-20T14:36:02.646Z,5.13
2023-08-20T14:38:30.568Z,4.97
2023-08-20T14:41:04.377Z,4.88
2023-08-20T14:43:33.482Z,5.38
2023-08-20T14:46:00.361Z,5.60
2023-08-20T14:48:27.289Z,5.18
2023-08-20T14:50:54.291Z,5.20
2023-08-20T14:53:21.300Z,4.72
2023-08-20T14:55:48.229Z,4.85
2023-08-20T14:58:15.093Z,4.90
2023-08-20T15:00:42.354Z,4.80
2023-08-20T15:03:09.648Z,5.15
2023-08-20T15:05:36.718Z,5.63
2023-08-20T15:08:05.758Z,5.80
2023-08-20T15:10:32.717Z,5.65
2023-08-20T15:12:59.608Z,5.57
2023-08-20T15:15:29.911Z,5.10
2023-08-20T15:17:57.385Z,5.10
2023-08-20T15:20:24.452Z,4.80
2023-08-20T15:22:51.409Z,5.28
2023-08-20T15:25:19.812Z,5.30
2023-08-20T15:27:46.709Z,5.63
2023-08-20T15:30:13.730Z,4.88
2023-08-20T15:32:40.615Z,5.60
2023-08-20T15:35:08.463Z,5.45
2023-08-20T15:37:36.082Z,5.63
2023-08-20T15:40:07.105Z,5.68
2023-08-20T15:42:35.087Z,4.78
2023-08-20T15:45:02.083Z,4.55
2023-08-20T15:47:29.071Z,4.70
2023-08-20T15:49:56.025Z,5.20
2023-08-20T15:52:22.984Z,4.47
2023-08-20T15:54:49.902Z,5.55
2023-08-20T15:57:16.794Z,5.00
2023-08-20T15:59:43.907Z,4.78
2023-08-20T16:02:12.684Z,4.78
2023-08-20T16:04:39.613Z,4.95
2023-08-20T16:07:08.259Z,4.93
2023-08-20T16:09:42.808Z,4.80
2023-08-20T16:12:10.997Z,5.07
2023-08-20T16:14:37.947Z,4.82
2023-08-20T16:17:05.037Z,4.90
2023-08-20T16:19:31.962Z,5.03
2023-08-20T16:21:58.876Z,4.72
2023-08-20T16:24:25.835Z,5.25
2023-08-20T16:26:52.716Z,5.07
2023-08-20T16:29:19.606Z,5.38
2023-08-20T16:31:46.507Z,4.70
2023-08-20T16:34:13.344Z,5.20
2023-08-20T16:36:40.234Z,4.28
2023-08-20T16:39:07.091Z,4.60
2023-08-20T16:41:33.966Z,5.43
2023-08-20T16:44:00.925Z,5.47
2023-08-20T16:46:27.816Z,4.40
2023-08-20T16:48:54.739Z,4.40
2023-08-20T16:51:22.124Z,4.93
2023-08-20T16:53:49.009Z,4.63
2023-08-20T16:56:16.028Z,4.57
2023-08-20T16:58:42.893Z,5.63
2023-08-20T17:01:12.001Z,4.40
2023-08-20T17:03:39.091Z,5.03
2023-08-20T17:06:06.327Z,4.88
2023-08-20T17:08:33.324Z,5.18
2023-08-20T17:11:09.758Z,4.53
2023-08-20T17:13:39.205Z,5.18
2023-08-20T17:16:07.380Z,5.38
2023-08-20T17:18:34.875Z,5.05
2023-08-20T17:21:01.800Z,4.90
2023-08-20T17:23:28.825Z,5.20
2023-08-20T17:25:57.347Z,4.60
2023-08-20T17:28:24.303Z,4.85
2023-08-20T17:30:52.304Z,5.13
2023-08-20T17:33:19.260Z,4.80
2023-08-20T17:35:46.758Z,5.30
2023-08-20T17:38:14.820Z,5.60
2023-08-20T17:40:41.886Z,5.13
2023-08-20T17:43:08.772Z,5.25
2023-08-20T17:45:37.597Z,4.90
2023-08-20T17:48:05.388Z,5.07
2023-08-20T17:50:37.082Z,5.20
2023-08-20T17:53:05.900Z,5.13
2023-08-20T17:55:34.282Z,5.88
2023-08-20T17:58:01.730Z,5.88
2023-08-20T18:00:29.233Z,5.35
2023-08-20T18:02:56.929Z,5.15
2023-08-20T18:05:24.342Z,5.78
2023-08-20T18:07:54.663Z,4.60
2023-08-20T18:10:21.584Z,5.67
2023-08-20T18:12:48.480Z,5.28
2023-08-20T18:15:15.367Z,5.25
2023-08-20T18:17:42.361Z,5.18
2023-08-20T18:20:13.567Z,5.20
2023-08-20T18:22:41.381Z,4.75
2023-08-20T18:25:09.582Z,4.60
2023-08-20T18:27:36.549Z,5.90
2023-08-20T18:30:05.520Z,4.77
2023-08-20T18:32:33.592Z,4.33
2023-08-20T18:35:00.536Z,4.80
2023-08-20T18:37:27.519Z,4.80
2023-08-20T18:39:54.439Z,4.60
2023-08-20T18:42:21.332Z,4.70
2023-08-20T18:44:48.573Z,5.23
2023-08-20T18:47:15.404Z,5.70
2023-08-20T18:49:42.595Z,4.33
2023-08-20T18:52:09.524Z,4.90
2023-08-20T18:54:37.101Z,4.77
2023-08-20T18:57:04.813Z,4.60
2023-08-20T18:59:31.788Z,5.00
2023-08-20T19:01:58.827Z,4.70
2023-08-20T19:04:25.758Z,4.80
2023-08-20T19:06:53.227Z,4.77
2023-08-20T19:09:20.112Z,5.13
2023-08-20T19:11:47.000Z,4.67
2023-08-20T19:14:14.101Z,4.80
2023-08-20T19:16:41.097Z,5.00
2023-08-20T19:19:10.056Z,4.60
2023-08-20T19:21:36.940Z,5.47
2023-08-20T19:24:05.554Z,5.00
2023-08-20T19:26:33.473Z,5.20
2023-08-20T19:29:01.777Z,5.57
2023-08-20T19:31:29.017Z,4.53
2023-08-20T19:33:56.351Z,4.80
2023-08-20T19:36:23.260Z,5.10
2023-08-20T19:38:50.102Z,6.17
2023-08-20T19:41:17.022Z,5.47
2023-08-20T19:43:43.833Z,5.53
2023-08-20T19:46:10.942Z,5.20
2023-08-20T19:48:37.856Z,5.50
2023-08-20T19:51:05.288Z,4.87
2023-08-20T19:53:32.223Z,4.60
2023-08-20T19:55:59.056Z,5.40
2023-08-20T19:58:27.154Z,5.33
2023-08-20T20:00:54.567Z,5.00
2023-08-20T20:03:21.787Z,5.90
2023-08-20T20:05:48.826Z,5.40
2023-08-20T20:08:15.748Z,6.07
2023-08-20T20:10:43.378Z,5.13
2023-08-20T20:13:10.378Z,5.47
2023-08-20T20:15:37.404Z,5.80
2023-08-20T20:18:04.415Z,5.40
2023-08-20T20:20:33.685Z,6.03
2023-08-20T20:23:00.700Z,5.70
2023-08-20T20:25:28.007Z,5.33
2023-08-20T20:27:55.060Z,6.07
2023-08-20T20:30:22.032Z,5.73
2023-08-20T20:32:49.083Z,5.90
2023-08-20T20:35:16.901Z,5.67
2023-08-20T20:37:43.805Z,5.10
2023-08-20T20:40:11.265Z,6.13
2023-08-20T20:42:38.372Z,5.53
2023-08-20T20:45:07.181Z,6.03
2023-08-20T20:47:34.282Z,5.30
2023-08-20T20:50:01.863Z,5.60
2023-08-20T20:52:29.066Z,4.87
2023-08-20T20:54:55.994Z,5.83
2023-08-20T20:57:23.031Z,5.97
2023-08-20T20:59:49.955Z,5.10
2023-08-20T21:02:16.958Z,5.63
2023-08-20T21:04:43.908Z,6.33
2023-08-20T21:07:10.843Z,6.20
2023-08-20T21:09:37.700Z,6.00
2023-08-20T21:12:04.990Z,5.67
2023-08-20T21:14:32.063Z,5.97
2023-08-20T21:16:59.034Z,5.93
2023-08-20T21:19:25.971Z,6.50
2023-08-20T21:21:57.554Z,5.90
2023-08-20T21:24:24.358Z,5.13
2023-08-20T21:26:51.208Z,5.47
2023-08-20T21:29:18.108Z,5.80
2023-08-20T21:31:44.980Z,5.87
2023-08-20T21:34:11.837Z,5.60
2023-08-20T21:36:38.733Z,6.20
2023-08-20T21:39:05.610Z,5.97
2023-08-20T21:41:33.497Z,5.60
2023-08-20T21:44:00.602Z,5.00
2023-08-20T21:46:27.571Z,5.93
2023-08-20T21:48:54.530Z,6.17
2023-08-20T21:51:21.438Z,6.27
2023-08-20T21:53:48.350Z,6.70
2023-08-20T21:56:15.170Z,6.33
2023-08-20T21:58:42.400Z,5.80
2023-08-20T22:01:09.499Z,5.43
2023-08-20T22:03:36.772Z,5.73
2023-08-20T22:06:05.498Z,5.93
2023-08-20T22:08:32.577Z,6.33
2023-08-20T22:11:00.295Z,6.97
2023-08-20T22:13:28.083Z,6.50
2023-08-20T22:15:56.969Z,6.43
2023-08-20T22:18:24.774Z,6.13
2023-08-20T22:20:53.400Z,6.73
2023-08-20T22:23:20.535Z,7.70
2023-08-20T22:25:47.636Z,6.50
2023-08-20T22:28:14.480Z,6.57
2023-08-20T22:30:42.788Z,6.90
2023-08-20T22:33:10.430Z,6.57
2023-08-20T22:35:37.606Z,6.93
2023-08-20T22:38:09.522Z,6.70
2023-08-20T22:40:39.165Z,6.83
2023-08-20T22:43:06.278Z,6.07
2023-08-20T22:45:33.318Z,7.00
2023-08-20T22:48:01.524Z,6.90
2023-08-20T22:50:29.211Z,7.30
2023-08-20T22:52:56.656Z,6.73
2023-08-20T22:55:23.945Z,6.40
2023-08-20T22:57:50.775Z,6.30
2023-08-20T23:00:18.768Z,6.80
2023-08-20T23:02:46.464Z,6.47
2023-08-20T23:05:13.357Z,7.13
2023-08-20T23:07:40.353Z,6.53
2023-08-20T23:10:08.094Z,5.80
2023-08-20T23:12:34.935Z,5.93
2023-08-20T23:15:02.018Z,6.80
2023-08-20T23:17:29.021Z,6.30
2023-08-20T23:19:56.120Z,6.67
2023-08-20T23:22:23.546Z,6.20
2023-08-20T23:24:50.405Z,6.80
2023-08-20T23:27:17.287Z,5.83
2023-08-20T23:29:44.372Z,6.27
2023-08-20T23:32:11.632Z,6.80
2023-08-20T23:34:38.825Z,5.80
2023-08-20T23:37:06.972Z,6.50
2023-08-20T23:39:33.964Z,6.23
2023-08-20T23:42:04.451Z,6.40
2023-08-20T23:44:31.655Z,6.23
2023-08-20T23:46:58.749Z,6.07
2023-08-20T23:49:25.791Z,6.23
2023-08-20T23:51:52.809Z,6.10
2023-08-20T23:54:19.712Z,6.10
2023-08-20T23:56:46.938Z,6.80
2023-08-20T23:59:15.523Z,5.70
